createdAt,value
2022-08-17T00:00:34.336Z,100989.63
2022-08-17T00:03:10.065Z,100990.81
2022-08-17T00:05:41.891Z,100991.84
2022-08-17T00:08:09.994Z,100991.50
2022-08-17T00:10:38.608Z,101003.41
2022-08-17T00:13:08.723Z,101000.66
2022-08-17T00:15:36.721Z,100998.13
2022-08-17T00:19:06.231Z,100992.00
2022-08-17T00:20:55.501Z,101003.75
2022-08-17T00:23:24.429Z,101001.03
2022-08-17T00:25:53.459Z,100998.66
2022-08-17T00:28:22.123Z,100994.91
2022-08-17T00:30:53.460Z,100988.81
2022-08-17T00:33:26.000Z,100991.84
2022-08-17T00:35:54.534Z,100989.97
2022-08-17T00:38:23.712Z,100992.00
2022-08-17T00:40:55.869Z,100989.47
2022-08-17T00:43:30.450Z,100997.31
2022-08-17T00:45:58.988Z,100992.19
2022-08-17T00:48:30.015Z,100991.69
2022-08-17T00:51:04.400Z,100990.16
2022-08-17T00:53:34.912Z,100987.63
2022-08-17T00:56:07.870Z,100997.66
2022-08-17T00:58:38.524Z,100995.25
2022-08-17T01:01:10.041Z,100994.03
2022-08-17T01:03:40.692Z,100989.81
2022-08-17T01:06:10.221Z,101000.88
2022-08-17T01:08:40.515Z,100989.78
2022-08-17T01:11:09.482Z,100990.47
2022-08-17T01:13:41.923Z,100995.91
2022-08-17T01:16:16.758Z,100999.00
2022-08-17T01:18:48.903Z,101002.72
2022-08-17T01:21:23.784Z,101000.97
2022-08-17T01:23:53.362Z,101003.84
2022-08-17T01:26:21.539Z,101013.03
2022-08-17T01:28:55.393Z,101008.94
2022-08-17T01:31:26.296Z,101010.47
2022-08-17T01:33:54.730Z,101007.91
2022-08-17T01:36:22.974Z,101008.06
2022-08-17T01:38:52.204Z,101010.94
2022-08-17T01:41:22.699Z,101011.81
2022-08-17T01:43:55.437Z,101021.47
2022-08-17T01:46:28.182Z,101013.66
2022-08-17T01:48:57.831Z,101025.53
2022-08-17T01:51:27.574Z,101019.06
2022-08-17T01:54:00.713Z,101016.53
2022-08-17T01:56:31.196Z,101029.75
2022-08-17T01:58:59.159Z,101019.06
2022-08-17T02:01:29.302Z,101021.09
2022-08-17T02:04:00.467Z,101018.38
2022-08-17T02:06:31.634Z,101011.25
2022-08-17T02:09:16.749Z,101010.19
2022-08-17T02:11:46.279Z,101010.53
2022-08-17T02:14:14.856Z,101006.13
2022-08-17T02:16:43.345Z,101006.25
2022-08-17T02:19:13.823Z,101007.63
2022-08-17T02:21:43.808Z,101013.88
2022-08-17T02:24:16.885Z,101011.69
2022-08-17T02:26:46.428Z,101018.97
2022-08-17T02:29:15.848Z,101013.19
2022-08-17T02:31:44.646Z,101011.00
2022-08-17T02:34:12.953Z,101014.41
2022-08-17T02:36:40.930Z,101007.06
2022-08-17T02:39:11.075Z,101008.09
2022-08-17T02:41:41.212Z,101016.72
2022-08-17T02:44:09.160Z,101007.75
2022-08-17T02:46:37.403Z,101013.34
2022-08-17T02:49:06.327Z,101008.22
2022-08-17T02:51:35.345Z,101003.66
2022-08-17T02:54:39.717Z,101005.03
2022-08-17T02:56:53.620Z,101004.09
2022-08-17T02:59:21.569Z,101006.81
2022-08-17T03:01:49.589Z,101007.94
2022-08-17T03:04:17.555Z,101005.94
2022-08-17T03:06:45.548Z,101006.44
2022-08-17T03:09:13.408Z,101006.63
2022-08-17T03:11:41.477Z,101000.50
2022-08-17T03:14:10.884Z,101009.50
2022-08-17T03:16:38.826Z,101006.94
2022-08-17T03:19:07.203Z,101005.75
2022-08-17T03:21:35.201Z,101004.75
2022-08-17T03:24:08.766Z,101003.53
2022-08-17T03:26:37.256Z,101007.44
2022-08-17T03:29:05.434Z,101012.34
2022-08-17T03:31:36.949Z,101018.91
2022-08-17T03:34:05.384Z,101012.97
2022-08-17T03:36:36.220Z,101015.16
2022-08-17T03:39:04.300Z,101024.97
2022-08-17T03:41:32.290Z,101013.13
2022-08-17T03:44:00.299Z,101022.28
2022-08-17T03:46:45.676Z,101017.66
2022-08-17T03:49:32.194Z,101023.41
2022-08-17T03:52:17.630Z,101020.22
2022-08-17T03:55:04.142Z,101022.69
2022-08-17T03:57:32.987Z,101013.03
2022-08-17T04:00:00.956Z,101022.50
2022-08-17T04:02:31.742Z,101020.31
2022-08-17T04:05:01.750Z,101020.94
2022-08-17T04:07:31.951Z,101018.41
2022-08-17T04:10:00.615Z,101023.28
2022-08-17T04:12:31.075Z,101021.28
2022-08-17T04:14:59.321Z,101027.88
2022-08-17T04:17:29.179Z,101026.88
2022-08-17T04:19:57.412Z,101025.84
2022-08-17T04:22:31.963Z,101021.75
2022-08-17T04:25:04.158Z,101022.44
2022-08-17T04:27:32.201Z,101023.81
2022-08-17T04:30:00.115Z,101036.34
2022-08-17T04:33:00.469Z,101028.72
2022-08-17T04:35:20.243Z,101039.59
2022-08-17T04:37:49.930Z,101037.94
2022-08-17T04:40:35.641Z,101037.75
2022-08-17T04:43:05.346Z,101036.25
2022-08-17T04:45:33.259Z,101036.00
2022-08-17T04:48:01.537Z,101038.09
2022-08-17T04:50:29.447Z,101049.56
2022-08-17T04:52:58.929Z,101050.38
2022-08-17T04:55:27.285Z,101052.72
2022-08-17T04:57:55.622Z,101050.59
2022-08-17T05:00:25.776Z,101047.31
2022-08-17T05:02:56.341Z,101042.13
2022-08-17T05:05:27.066Z,101045.88
2022-08-17T05:07:56.338Z,101040.03
2022-08-17T05:10:27.520Z,101043.84
2022-08-17T05:12:59.837Z,101048.16
2022-08-17T05:15:28.422Z,101050.72
2022-08-17T05:18:01.440Z,101047.03
2022-08-17T05:20:29.995Z,101048.44
2022-08-17T05:23:00.328Z,101053.94
2022-08-17T05:25:36.254Z,101054.53
2022-08-17T05:28:06.656Z,101051.41
2022-08-17T05:30:35.931Z,101053.13
2022-08-17T05:33:06.203Z,101057.06
2022-08-17T05:35:36.725Z,101056.94
2022-08-17T05:38:04.905Z,101055.94
2022-08-17T05:40:34.123Z,101060.41
2022-08-17T05:43:07.809Z,101065.16
2022-08-17T05:45:54.533Z,101066.81
2022-08-17T05:48:35.613Z,101067.88
2022-08-17T05:51:24.977Z,101067.56
2022-08-17T05:54:02.275Z,101065.53
2022-08-17T05:56:49.618Z,101070.66
2022-08-17T05:59:26.413Z,101069.69
2022-08-17T06:01:59.443Z,101067.81
2022-08-17T06:04:32.857Z,101076.19
2022-08-17T06:07:11.990Z,101073.47
2022-08-17T06:09:47.906Z,101085.75
2022-08-17T06:12:38.465Z,101081.50
2022-08-17T06:15:23.906Z,101076.03
2022-08-17T06:17:56.631Z,101079.16
2022-08-17T06:20:28.744Z,101078.97
2022-08-17T06:23:06.880Z,101072.13
2022-08-17T06:25:39.378Z,101067.34
2022-08-17T06:28:14.820Z,101066.84
2022-08-17T06:30:59.845Z,101076.31
2022-08-17T06:33:34.246Z,101072.56
2022-08-17T06:36:15.814Z,101074.94
2022-08-17T06:38:55.756Z,101079.47
2022-08-17T06:41:28.937Z,101075.47
2022-08-17T06:44:11.638Z,101076.75
2022-08-17T06:47:09.063Z,101070.91
2022-08-17T06:49:44.340Z,101071.00
2022-08-17T06:52:42.136Z,101068.94
2022-08-17T06:55:18.598Z,101073.06
2022-08-17T06:57:50.607Z,101084.72
2022-08-17T07:00:23.895Z,101085.97
2022-08-17T07:02:58.438Z,101086.56
2022-08-17T07:05:31.671Z,101078.06
2022-08-17T07:08:05.734Z,101079.41
2022-08-17T07:10:45.669Z,101076.50
2022-08-17T07:13:34.883Z,101073.31
2022-08-17T07:16:18.163Z,101070.78
2022-08-17T07:18:47.179Z,101076.13
2022-08-17T07:21:27.544Z,101083.34
2022-08-17T07:24:30.162Z,101080.50
2022-08-17T07:27:10.443Z,101077.03
2022-08-17T07:29:41.844Z,101089.69
2022-08-17T07:32:13.564Z,101081.16
2022-08-17T07:35:11.306Z,101077.16
2022-08-17T07:37:40.909Z,101077.47
2022-08-17T07:40:35.562Z,101073.88
2022-08-17T07:43:23.484Z,101073.66
2022-08-17T07:46:17.191Z,101079.81
2022-08-17T07:48:49.713Z,101078.88
2022-08-17T07:51:25.243Z,101080.91
2022-08-17T07:53:53.893Z,101076.13
2022-08-17T07:56:41.248Z,101076.44
2022-08-17T07:59:15.588Z,101080.19
2022-08-17T08:01:48.035Z,101081.75
2022-08-17T08:07:28.657Z,101084.91
2022-08-17T08:10:07.766Z,101088.19
2022-08-17T08:12:37.813Z,101078.63
2022-08-17T08:15:15.418Z,101080.78
2022-08-17T08:17:53.284Z,101086.34
2022-08-17T08:20:52.072Z,101091.97
2022-08-17T08:23:33.513Z,101096.75
2022-08-17T08:26:18.291Z,101101.09
2022-08-17T08:28:55.824Z,101094.91
2022-08-17T08:31:28.866Z,101106.31
2022-08-17T08:34:09.269Z,101102.09
2022-08-17T08:37:17.800Z,101102.19
2022-08-17T08:40:12.229Z,101109.25
2022-08-17T08:42:49.952Z,101105.97
2022-08-17T08:45:24.816Z,101104.53
2022-08-17T08:48:12.729Z,101109.94
2022-08-17T08:51:08.586Z,101106.56
2022-08-17T08:53:49.668Z,101111.00
2022-08-17T08:56:25.103Z,101114.75
2022-08-17T08:59:01.905Z,101106.75
2022-08-17T09:01:38.907Z,101105.88
2022-08-17T09:04:26.053Z,101108.88
2022-08-17T09:07:09.735Z,101113.16
2022-08-17T09:09:48.273Z,101113.56
2022-08-17T09:12:23.442Z,101113.28
2022-08-17T09:14:59.560Z,101115.97
2022-08-17T09:17:36.852Z,101112.19
2022-08-17T09:20:11.579Z,101124.16
2022-08-17T09:23:03.175Z,101116.25
2022-08-17T09:25:36.229Z,101109.63
2022-08-17T09:28:07.943Z,101115.13
2022-08-17T09:30:42.362Z,101115.28
2022-08-17T09:33:12.661Z,101112.44
2022-08-17T09:35:45.406Z,101113.81
2022-08-17T09:38:22.481Z,101112.25
2022-08-17T09:40:57.933Z,101106.69
2022-08-17T09:43:35.360Z,101112.56
2022-08-17T09:46:10.351Z,101115.50
2022-08-17T09:48:43.132Z,101103.94
2022-08-17T09:51:16.739Z,101102.59
2022-08-17T09:53:44.939Z,101107.44
2022-08-17T09:56:32.790Z,101108.97
2022-08-17T09:59:28.439Z,101103.13
2022-08-17T10:02:30.149Z,101104.69
2022-08-17T10:05:04.817Z,101101.81
2022-08-17T10:07:38.116Z,101094.78
2022-08-17T10:10:14.666Z,101095.66
2022-08-17T10:12:53.235Z,101096.44
2022-08-17T10:15:36.742Z,101095.47
2022-08-17T10:18:19.981Z,101091.13
2022-08-17T10:21:14.305Z,101095.72
2022-08-17T10:24:03.415Z,101101.38
2022-08-17T10:26:40.532Z,101099.56
2022-08-17T10:29:29.518Z,101096.72
2022-08-17T10:32:12.513Z,101101.13
2022-08-17T10:35:16.106Z,101099.09
2022-08-17T10:38:03.961Z,101077.38
2022-08-17T10:40:38.222Z,101082.69
2022-08-17T10:43:24.937Z,101082.56
2022-08-17T10:46:27.722Z,101084.56
2022-08-17T10:49:16.079Z,101078.69
2022-08-17T10:51:45.964Z,101083.38
2022-08-17T10:54:36.272Z,101096.22
2022-08-17T10:57:24.078Z,101087.41
2022-08-17T10:59:54.044Z,101080.41
2022-08-17T11:02:31.585Z,101077.94
2022-08-17T11:05:15.678Z,101081.06
2022-08-17T11:08:05.520Z,101076.00
2022-08-17T11:10:59.322Z,101086.22
2022-08-17T11:13:40.997Z,101082.44
2022-08-17T11:16:26.826Z,101080.41
2022-08-17T11:19:28.630Z,101077.44
2022-08-17T11:22:34.061Z,101069.53
2022-08-17T11:25:16.770Z,101079.44
2022-08-17T11:27:47.280Z,101073.91
2022-08-17T11:30:36.101Z,101067.44
2022-08-17T11:33:42.751Z,101065.63
2022-08-17T11:36:23.215Z,101068.53
2022-08-17T11:39:00.996Z,101065.44
2022-08-17T11:41:39.010Z,101065.16
2022-08-17T11:44:38.921Z,101060.63
2022-08-17T11:47:32.877Z,101062.78
2022-08-17T11:50:45.678Z,101057.97
2022-08-17T11:54:03.569Z,101071.03
2022-08-17T11:56:52.885Z,101063.59
2022-08-17T11:59:56.002Z,101066.91
2022-08-17T12:02:39.051Z,101064.28
2022-08-17T12:05:32.346Z,101059.28
2022-08-17T12:08:09.069Z,101063.09
2022-08-17T12:10:49.944Z,101063.91
2022-08-17T12:13:20.336Z,101053.66
2022-08-17T12:15:52.712Z,101050.44
2022-08-17T12:18:22.499Z,101051.97
2022-08-17T12:21:15.623Z,101053.97
2022-08-17T12:23:56.205Z,101058.00
2022-08-17T12:26:27.729Z,101055.38
2022-08-17T12:29:01.023Z,101053.09
2022-08-17T12:31:32.486Z,101055.69
2022-08-17T12:34:00.646Z,101052.44
2022-08-17T12:36:29.889Z,101056.88
2022-08-17T12:39:14.169Z,101046.00
2022-08-17T12:41:50.849Z,101051.34
2022-08-17T12:44:23.252Z,101069.06
2022-08-17T12:46:54.852Z,101059.03
2022-08-17T12:49:33.187Z,101057.31
2022-08-17T12:52:24.645Z,101064.09
2022-08-17T12:54:57.009Z,101056.22
2022-08-17T12:57:28.174Z,101062.81
2022-08-17T13:00:00.913Z,101053.13
2022-08-17T13:02:41.011Z,101051.38
2022-08-17T13:05:19.074Z,101054.53
2022-08-17T13:07:47.814Z,101061.50
2022-08-17T13:10:24.834Z,101046.91
2022-08-17T13:12:56.150Z,101044.00
2022-08-17T13:15:35.144Z,101044.00
2022-08-17T13:18:07.790Z,101044.41
2022-08-17T13:20:37.151Z,101035.81
2022-08-17T13:23:12.391Z,101035.88
2022-08-17T13:25:40.953Z,101029.09
2022-08-17T13:28:30.769Z,101027.34
2022-08-17T13:31:33.033Z,101025.81
2022-08-17T13:34:20.329Z,101020.31
2022-08-17T13:36:51.324Z,101014.59
2022-08-17T13:39:21.895Z,101014.91
2022-08-17T13:41:53.163Z,101008.38
2022-08-17T13:44:36.997Z,101012.88
2022-08-17T13:47:15.605Z,101008.50
2022-08-17T13:49:48.990Z,101004.72
2022-08-17T13:52:35.250Z,101010.25
2022-08-17T13:55:10.025Z,101002.59
2022-08-17T13:57:38.403Z,101005.16
2022-08-17T14:00:13.244Z,101006.91
2022-08-17T14:02:42.856Z,101013.06
2022-08-17T14:05:11.022Z,101009.69
2022-08-17T14:07:40.731Z,101011.38
2022-08-17T14:10:14.380Z,101012.91
2022-08-17T14:12:44.547Z,101010.03
2022-08-17T14:15:15.366Z,101003.72
2022-08-17T14:17:44.991Z,101007.47
2022-08-17T14:20:14.631Z,101002.34
2022-08-17T14:22:46.295Z,100998.72
2022-08-17T14:25:16.587Z,101010.25
2022-08-17T14:27:52.273Z,101011.47
2022-08-17T14:30:23.879Z,101004.63
2022-08-17T14:32:53.694Z,101005.56
2022-08-17T14:35:23.976Z,101001.50
2022-08-17T14:37:53.033Z,100998.31
2022-08-17T14:40:24.762Z,100996.00
2022-08-17T14:42:54.396Z,100998.13
2022-08-17T14:45:31.494Z,101000.69
2022-08-17T14:48:05.791Z,100997.41
2022-08-17T14:50:35.369Z,100999.22
2022-08-17T14:53:04.639Z,100993.03
2022-08-17T14:55:33.665Z,100989.91
2022-08-17T14:58:02.106Z,100992.00
2022-08-17T15:00:30.137Z,100993.31
2022-08-17T15:03:00.204Z,100987.59
2022-08-17T15:05:32.550Z,100983.13
2022-08-17T15:08:01.107Z,100986.50
2022-08-17T15:10:30.457Z,100979.69
2022-08-17T15:13:00.430Z,100973.34
2022-08-17T15:15:29.559Z,100978.31
2022-08-17T15:17:59.935Z,100972.22
2022-08-17T15:20:31.176Z,100975.00
2022-08-17T15:23:00.010Z,100970.16
2022-08-17T15:25:31.883Z,100965.31
2022-08-17T15:28:00.482Z,100972.06
2022-08-17T15:30:29.434Z,100962.56
2022-08-17T15:32:59.006Z,100961.72
2022-08-17T15:35:33.535Z,100967.75
2022-08-17T15:38:08.343Z,100964.56
2022-08-17T15:40:46.830Z,100966.09
2022-08-17T15:43:16.958Z,100953.38
2022-08-17T15:45:59.983Z,100961.91
2022-08-17T15:48:41.066Z,100955.13
2022-08-17T15:51:13.226Z,100954.34
2022-08-17T15:53:42.480Z,100949.09
2022-08-17T15:56:11.319Z,100948.63
2022-08-17T15:58:42.118Z,100947.72
2022-08-17T16:01:14.756Z,100944.09
2022-08-17T16:04:04.035Z,100943.91
2022-08-17T16:06:36.464Z,100945.41
2022-08-17T16:09:05.057Z,100944.78
2022-08-17T16:11:33.027Z,100944.81
2022-08-17T16:14:01.246Z,100938.94
2022-08-17T16:16:31.367Z,100935.16
2022-08-17T16:18:59.446Z,100940.25
2022-08-17T16:21:31.258Z,100941.50
2022-08-17T16:24:12.787Z,100937.50
2022-08-17T16:26:42.420Z,100930.69
2022-08-17T16:29:10.756Z,100935.19
2022-08-17T16:31:41.552Z,100921.81
2022-08-17T16:34:16.935Z,100922.91
2022-08-17T16:36:55.150Z,100918.91
2022-08-17T16:39:27.502Z,100916.19
2022-08-17T16:41:56.187Z,100912.16
2022-08-17T16:44:25.911Z,100913.69
2022-08-17T16:46:54.155Z,100902.91
2022-08-17T16:49:35.509Z,100904.19
2022-08-17T16:52:05.969Z,100912.19
2022-08-17T16:54:36.417Z,100912.84
2022-08-17T16:57:05.561Z,100913.47
2022-08-17T16:59:42.134Z,100903.72
2022-08-17T17:02:15.855Z,100901.22
2022-08-17T17:04:51.309Z,100904.78
2022-08-17T17:07:38.868Z,100912.59
2022-08-17T17:10:11.726Z,100906.91
2022-08-17T17:13:01.349Z,100918.75
2022-08-17T17:15:41.541Z,100921.91
2022-08-17T17:18:13.413Z,100916.63
2022-08-17T17:20:48.950Z,100924.03
2022-08-17T17:23:33.292Z,100916.81
2022-08-17T17:26:11.157Z,100922.44
2022-08-17T17:28:48.836Z,100912.66
2022-08-17T17:31:19.453Z,100915.41
2022-08-17T17:33:50.579Z,100924.88
2022-08-17T17:36:26.715Z,100922.16
2022-08-17T17:38:59.270Z,100923.00
2022-08-17T17:41:34.023Z,100922.31
2022-08-17T17:44:05.959Z,100931.97
2022-08-17T17:46:39.649Z,100931.78
2022-08-17T17:49:10.195Z,100939.50
2022-08-17T17:52:08.614Z,100943.06
2022-08-17T17:55:01.992Z,100952.50
2022-08-17T17:57:45.622Z,100941.53
2022-08-17T18:00:16.661Z,100935.19
2022-08-17T18:02:56.914Z,100926.56
2022-08-17T18:05:46.038Z,100921.31
2022-08-17T18:08:34.097Z,100924.47
2022-08-17T18:11:15.265Z,100925.00
2022-08-17T18:14:10.750Z,100915.00
2022-08-17T18:16:42.839Z,100905.72
2022-08-17T18:19:14.244Z,100923.16
2022-08-17T18:21:45.976Z,100935.22
2022-08-17T18:24:14.996Z,100960.03
2022-08-17T18:26:51.544Z,101033.13
2022-08-17T18:29:44.191Z,101032.34
2022-08-17T18:32:34.877Z,101054.28
2022-08-17T18:35:28.340Z,101060.41
2022-08-17T18:37:58.963Z,101071.97
2022-08-17T18:40:37.770Z,101055.13
2022-08-17T18:43:13.447Z,101089.00
2022-08-17T18:45:47.381Z,101104.06
2022-08-17T18:48:23.089Z,101120.69
2022-08-17T18:50:53.610Z,101118.91
2022-08-17T18:53:34.060Z,101114.63
2022-08-17T18:56:25.802Z,101132.09
2022-08-17T18:59:06.342Z,101137.28
2022-08-17T19:01:52.770Z,101144.16
2022-08-17T19:04:34.807Z,101121.19
2022-08-17T19:07:06.866Z,101104.63
2022-08-17T19:09:38.135Z,101076.09
2022-08-17T19:12:10.023Z,101062.16
2022-08-17T19:14:38.391Z,101046.50
2022-08-17T19:17:15.326Z,101041.44
2022-08-17T19:19:51.354Z,101046.97
2022-08-17T19:22:28.434Z,101046.59
2022-08-17T19:25:03.962Z,101059.53
2022-08-17T19:27:43.700Z,101072.00
2022-08-17T19:30:16.579Z,101069.63
2022-08-17T19:32:46.034Z,101054.66
2022-08-17T19:35:17.562Z,101056.84
2022-08-17T19:37:57.491Z,101053.44
2022-08-17T19:40:52.440Z,101037.78
2022-08-17T19:43:31.832Z,101037.97
2022-08-17T19:46:06.170Z,101033.53
2022-08-17T19:48:48.421Z,101030.97
2022-08-17T19:51:21.826Z,101021.13
2022-08-17T19:54:06.358Z,101024.84
2022-08-17T19:56:43.563Z,101017.88
2022-08-17T19:59:17.155Z,101024.50
2022-08-17T20:01:52.097Z,101018.69
2022-08-17T20:04:37.511Z,101018.69
2022-08-17T20:07:10.976Z,101009.50
2022-08-17T20:09:44.348Z,101015.28
2022-08-17T20:12:17.872Z,101007.66
2022-08-17T20:14:53.733Z,101005.13
2022-08-17T20:17:28.420Z,101002.06
2022-08-17T20:20:07.470Z,101000.19
2022-08-17T20:22:54.946Z,100990.16
2022-08-17T20:25:31.830Z,100990.34
2022-08-17T20:28:07.497Z,100991.69
2022-08-17T20:30:38.898Z,100995.94
2022-08-17T20:33:12.425Z,100996.09
2022-08-17T20:36:03.387Z,100989.63
2022-08-17T20:38:43.702Z,100992.19
2022-08-17T20:41:15.404Z,100983.34
2022-08-17T20:43:49.016Z,100994.91
2022-08-17T20:46:24.855Z,100991.69
2022-08-17T20:48:56.506Z,100994.06
2022-08-17T20:51:33.638Z,100982.00
2022-08-17T20:54:23.947Z,100988.44
2022-08-17T20:56:57.812Z,100994.41
2022-08-17T20:59:59.459Z,101002.22
2022-08-17T21:02:29.739Z,100995.91
2022-08-17T21:05:08.015Z,100999.84
2022-08-17T21:07:56.020Z,100984.22
2022-08-17T21:10:37.788Z,100990.13
2022-08-17T21:13:32.354Z,100986.06
2022-08-17T21:16:08.462Z,100974.69
2022-08-17T21:18:42.992Z,100986.84
2022-08-17T21:21:24.080Z,100998.56
2022-08-17T21:24:11.866Z,101005.19
2022-08-17T21:26:52.017Z,101008.78
2022-08-17T21:29:32.562Z,101003.50
2022-08-17T21:32:24.361Z,101000.06
2022-08-17T21:35:26.434Z,101001.75
2022-08-17T21:38:02.447Z,101002.94
2022-08-17T21:40:35.382Z,101009.06
2022-08-17T21:43:18.250Z,101009.19
2022-08-17T21:45:57.784Z,101007.69
2022-08-17T21:48:27.143Z,101016.88
2022-08-17T21:51:03.847Z,101003.78
2022-08-17T21:53:39.280Z,101010.94
2022-08-17T21:56:12.123Z,101015.19
2022-08-17T21:58:46.625Z,101007.72
2022-08-17T22:01:25.407Z,101009.75
2022-08-17T22:04:03.374Z,101008.53
2022-08-17T22:06:37.294Z,101011.91
2022-08-17T22:09:16.305Z,101006.47
2022-08-17T22:12:14.242Z,101003.94
2022-08-17T22:14:52.198Z,101006.78
2022-08-17T22:17:24.903Z,101010.00
2022-08-17T22:19:55.173Z,101014.41
2022-08-17T22:22:30.394Z,101005.72
2022-08-17T22:25:01.799Z,101000.47
2022-08-17T22:27:48.868Z,101002.88
2022-08-17T22:30:28.298Z,100998.97
2022-08-17T22:32:57.223Z,100991.34
2022-08-17T22:35:33.675Z,100990.78
2022-08-17T22:38:26.568Z,100983.47
2022-08-17T22:40:56.840Z,100984.25
2022-08-17T22:43:31.394Z,100984.06
2022-08-17T22:46:02.997Z,100983.72
2022-08-17T22:48:31.497Z,100979.63
2022-08-17T22:51:13.669Z,100986.91
2022-08-17T22:54:05.062Z,100990.78
2022-08-17T22:56:50.864Z,100994.31
2022-08-17T22:59:43.861Z,100988.59
2022-08-17T23:02:30.560Z,100997.09
2022-08-17T23:05:21.494Z,100998.59
2022-08-17T23:07:53.848Z,101007.22
2022-08-17T23:10:21.838Z,100999.56
2022-08-17T23:12:49.832Z,101001.06
2022-08-17T23:15:20.213Z,101004.75
2022-08-17T23:17:48.470Z,101004.22
2022-08-17T23:20:17.953Z,101005.44
2022-08-17T23:22:52.312Z,100995.19
2022-08-17T23:25:26.580Z,101000.00
2022-08-17T23:27:55.110Z,101005.59
2022-08-17T23:30:25.533Z,101002.31
2022-08-17T23:32:54.518Z,101007.38
2022-08-17T23:35:38.982Z,101006.22
2022-08-17T23:38:09.843Z,100998.78
2022-08-17T23:40:39.595Z,100999.75
2022-08-17T23:43:23.894Z,101002.38
2022-08-17T23:45:55.217Z,101007.13
2022-08-17T23:48:35.844Z,101002.53
2022-08-17T23:51:09.212Z,101008.66
2022-08-17T23:53:40.373Z,101007.44
2022-08-17T23:56:11.183Z,101008.84
2022-08-17T23:58:43.892Z,101004.94
